sensor_id;sensor_type;location;lat;lon;timestamp;pressure;altitude;pressure_sealevel;temperature
64947;BMP280;51469;52.150;4.682;2023-06-10T00:03:54;101734.94;;;27.21
64947;BMP280;51469;52.150;4.682;2023-06-10T00:06:19;101741.69;;;27.14
64947;BMP280;51469;52.150;4.682;2023-06-10T00:08:46;101747.16;;;27.18
64947;BMP280;51469;52.150;4.682;2023-06-10T00:11:12;101753.13;;;27.11
64947;BMP280;51469;52.150;4.682;2023-06-10T00:13:37;101750.63;;;27.13
64947;BMP280;51469;52.150;4.682;2023-06-10T00:16:03;101749.25;;;27.08
64947;BMP280;51469;52.150;4.682;2023-06-10T00:18:29;101755.72;;;26.91
64947;BMP280;51469;52.150;4.682;2023-06-10T00:20:56;101753.50;;;26.95
64947;BMP280;51469;52.150;4.682;2023-06-10T00:23:22;101756.00;;;26.93
64947;BMP280;51469;52.150;4.682;2023-06-10T00:25:49;101745.81;;;26.95
64947;BMP280;51469;52.150;4.682;2023-06-10T00:28:15;101747.56;;;26.93
64947;BMP280;51469;52.150;4.682;2023-06-10T00:30:40;101743.84;;;26.87
64947;BMP280;51469;52.150;4.682;2023-06-10T00:33:05;101746.66;;;26.78
64947;BMP280;51469;52.150;4.682;2023-06-10T00:35:31;101752.78;;;26.67
64947;BMP280;51469;52.150;4.682;2023-06-10T00:37:56;101751.09;;;26.52
64947;BMP280;51469;52.150;4.682;2023-06-10T00:40:21;101748.44;;;26.48
64947;BMP280;51469;52.150;4.682;2023-06-10T00:42:47;101747.97;;;26.50
64947;BMP280;51469;52.150;4.682;2023-06-10T00:45:12;101750.78;;;26.50
64947;BMP280;51469;52.150;4.682;2023-06-10T00:47:38;101753.59;;;26.50
64947;BMP280;51469;52.150;4.682;2023-06-10T00:50:04;101749.22;;;26.40
64947;BMP280;51469;52.150;4.682;2023-06-10T00:52:30;101748.59;;;26.36
64947;BMP280;51469;52.150;4.682;2023-06-10T00:54:56;101751.56;;;26.32
64947;BMP280;51469;52.150;4.682;2023-06-10T00:57:21;101752.97;;;26.37
64947;BMP280;51469;52.150;4.682;2023-06-10T00:59:48;101739.84;;;26.34
64947;BMP280;51469;52.150;4.682;2023-06-10T01:02:14;101745.78;;;26.36
64947;BMP280;51469;52.150;4.682;2023-06-10T01:04:39;101743.63;;;26.31
64947;BMP280;51469;52.150;4.682;2023-06-10T01:07:17;101736.41;;;26.30
64947;BMP280;51469;52.150;4.682;2023-06-10T01:12:30;101747.63;;;26.12
64947;BMP280;51469;52.150;4.682;2023-06-10T01:14:58;101753.31;;;26.21
64947;BMP280;51469;52.150;4.682;2023-06-10T01:17:24;101748.28;;;26.16
64947;BMP280;51469;52.150;4.682;2023-06-10T01:19:58;101745.94;;;26.05
64947;BMP280;51469;52.150;4.682;2023-06-10T01:22:25;101755.16;;;26.06
64947;BMP280;51469;52.150;4.682;2023-06-10T01:24:54;101752.34;;;26.06
64947;BMP280;51469;52.150;4.682;2023-06-10T01:27:23;101755.63;;;26.04
64947;BMP280;51469;52.150;4.682;2023-06-10T01:29:59;101762.03;;;26.05
64947;BMP280;51469;52.150;4.682;2023-06-10T01:32:34;101753.41;;;25.99
64947;BMP280;51469;52.150;4.682;2023-06-10T01:35:03;101757.94;;;25.97
64947;BMP280;51469;52.150;4.682;2023-06-10T01:37:30;101754.66;;;25.89
64947;BMP280;51469;52.150;4.682;2023-06-10T01:39:58;101751.66;;;25.75
64947;BMP280;51469;52.150;4.682;2023-06-10T01:42:24;101749.78;;;25.72
64947;BMP280;51469;52.150;4.682;2023-06-10T01:44:51;101750.69;;;25.69
64947;BMP280;51469;52.150;4.682;2023-06-10T01:47:16;101752.56;;;25.72
64947;BMP280;51469;52.150;4.682;2023-06-10T01:49:43;101749.63;;;25.75
64947;BMP280;51469;52.150;4.682;2023-06-10T01:52:08;101755.41;;;25.81
64947;BMP280;51469;52.150;4.682;2023-06-10T01:54:34;101753.69;;;25.83
64947;BMP280;51469;52.150;4.682;2023-06-10T01:57:02;101755.09;;;25.79
64947;BMP280;51469;52.150;4.682;2023-06-10T01:59:27;101743.06;;;25.78
64947;BMP280;51469;52.150;4.682;2023-06-10T02:01:52;101753.53;;;25.78
64947;BMP280;51469;52.150;4.682;2023-06-10T02:04:21;101748.22;;;25.71
64947;BMP280;51469;52.150;4.682;2023-06-10T02:06:46;101739.19;;;25.76
64947;BMP280;51469;52.150;4.682;2023-06-10T02:09:11;101748.22;;;25.71
64947;BMP280;51469;52.150;4.682;2023-06-10T02:11:37;101753.97;;;25.67
64947;BMP280;51469;52.150;4.682;2023-06-10T02:14:03;101750.06;;;25.65
64947;BMP280;51469;52.150;4.682;2023-06-10T02:16:28;101753.81;;;25.62
64947;BMP280;51469;52.150;4.682;2023-06-10T02:18:53;101752.50;;;25.54
64947;BMP280;51469;52.150;4.682;2023-06-10T02:21:19;101760.94;;;25.54
64947;BMP280;51469;52.150;4.682;2023-06-10T02:23:45;101756.88;;;25.46
64947;BMP280;51469;52.150;4.682;2023-06-10T02:26:10;101758.28;;;25.50
64947;BMP280;51469;52.150;4.682;2023-06-10T02:28:36;101763.44;;;25.43
64947;BMP280;51469;52.150;4.682;2023-06-10T02:31:01;101768.28;;;25.12
64947;BMP280;51469;52.150;4.682;2023-06-10T02:33:26;101764.53;;;25.15
64947;BMP280;51469;52.150;4.682;2023-06-10T02:35:52;101766.34;;;25.00
64947;BMP280;51469;52.150;4.682;2023-06-10T02:38:17;101764.72;;;25.21
64947;BMP280;51469;52.150;4.682;2023-06-10T02:40:43;101761.47;;;25.22
64947;BMP280;51469;52.150;4.682;2023-06-10T02:43:09;101770.19;;;25.24
64947;BMP280;51469;52.150;4.682;2023-06-10T02:45:34;101768.00;;;25.19
64947;BMP280;51469;52.150;4.682;2023-06-10T02:47:59;101761.72;;;25.15
64947;BMP280;51469;52.150;4.682;2023-06-10T02:50:25;101768.00;;;25.19
64947;BMP280;51469;52.150;4.682;2023-06-10T02:52:50;101758.00;;;25.18
64947;BMP280;51469;52.150;4.682;2023-06-10T02:55:15;101766.75;;;25.20
64947;BMP280;51469;52.150;4.682;2023-06-10T02:57:41;101759.59;;;25.19
64947;BMP280;51469;52.150;4.682;2023-06-10T03:00:07;101762.38;;;25.19
64947;BMP280;51469;52.150;4.682;2023-06-10T03:02:36;101757.91;;;25.00
64947;BMP280;51469;52.150;4.682;2023-06-10T03:05:04;101762.91;;;25.05
64947;BMP280;51469;52.150;4.682;2023-06-10T03:07:30;101760.47;;;25.07
64947;BMP280;51469;52.150;4.682;2023-06-10T03:09:56;101758.34;;;24.99
64947;BMP280;51469;52.150;4.682;2023-06-10T03:12:21;101755.66;;;24.86
64947;BMP280;51469;52.150;4.682;2023-06-10T03:14:47;101760.22;;;24.93
64947;BMP280;51469;52.150;4.682;2023-06-10T03:17:12;101758.97;;;24.94
64947;BMP280;51469;52.150;4.682;2023-06-10T03:19:37;101756.78;;;24.98
64947;BMP280;51469;52.150;4.682;2023-06-10T03:22:11;101758.63;;;24.92
64947;BMP280;51469;52.150;4.682;2023-06-10T03:24:37;101760.34;;;24.89
64947;BMP280;51469;52.150;4.682;2023-06-10T03:27:06;101765.28;;;24.85
64947;BMP280;51469;52.150;4.682;2023-06-10T03:29:32;101769.34;;;24.84
64947;BMP280;51469;52.150;4.682;2023-06-10T03:31:57;101774.16;;;24.84
64947;BMP280;51469;52.150;4.682;2023-06-10T03:34:22;101772.50;;;24.86
64947;BMP280;51469;52.150;4.682;2023-06-10T03:36:48;101774.31;;;24.80
64947;BMP280;51469;52.150;4.682;2023-06-10T03:39:15;101770.91;;;24.85
64947;BMP280;51469;52.150;4.682;2023-06-10T03:41:40;101777.19;;;24.89
64947;BMP280;51469;52.150;4.682;2023-06-10T03:44:05;101775.34;;;24.95
64947;BMP280;51469;52.150;4.682;2023-06-10T03:46:31;101778.75;;;24.90
64947;BMP280;51469;52.150;4.682;2023-06-10T03:48:56;101784.38;;;24.90
64947;BMP280;51469;52.150;4.682;2023-06-10T03:51:22;101779.38;;;24.94
64947;BMP280;51469;52.150;4.682;2023-06-10T03:53:48;101788.72;;;24.91
64947;BMP280;51469;52.150;4.682;2023-06-10T03:56:13;101776.94;;;24.96
64947;BMP280;51469;52.150;4.682;2023-06-10T03:58:38;101785.53;;;24.80
64947;BMP280;51469;52.150;4.682;2023-06-10T04:01:04;101787.09;;;24.81
64947;BMP280;51469;52.150;4.682;2023-06-10T04:03:29;101786.81;;;24.88
64947;BMP280;51469;52.150;4.682;2023-06-10T04:05:54;101790.63;;;24.73
64947;BMP280;51469;52.150;4.682;2023-06-10T04:08:20;101785.94;;;24.91
64947;BMP280;51469;52.150;4.682;2023-06-10T04:10:45;101794.66;;;24.93
64947;BMP280;51469;52.150;4.682;2023-06-10T04:13:11;101790.22;;;24.83
64947;BMP280;51469;52.150;4.682;2023-06-10T04:15:36;101785.34;;;24.96
64947;BMP280;51469;52.150;4.682;2023-06-10T04:18:02;101792.59;;;25.06
64947;BMP280;51469;52.150;4.682;2023-06-10T04:20:27;101797.66;;;24.99
64947;BMP280;51469;52.150;4.682;2023-06-10T04:22:52;101794.66;;;24.93
64947;BMP280;51469;52.150;4.682;2023-06-10T04:25:18;101798.41;;;24.90
64947;BMP280;51469;52.150;4.682;2023-06-10T04:27:44;101795.69;;;25.08
64947;BMP280;51469;52.150;4.682;2023-06-10T04:30:10;101805.72;;;25.09
64947;BMP280;51469;52.150;4.682;2023-06-10T04:32:35;101807.97;;;25.02
64947;BMP280;51469;52.150;4.682;2023-06-10T04:35:01;101810.09;;;25.10
64947;BMP280;51469;52.150;4.682;2023-06-10T04:37:26;101809.47;;;25.15
64947;BMP280;51469;52.150;4.682;2023-06-10T04:39:51;101814.22;;;25.27
64947;BMP280;51469;52.150;4.682;2023-06-10T04:42:17;101814.84;;;25.22
64947;BMP280;51469;52.150;4.682;2023-06-10T04:44:42;101817.38;;;25.29
64947;BMP280;51469;52.150;4.682;2023-06-10T04:47:08;101811.47;;;25.36
64947;BMP280;51469;52.150;4.682;2023-06-10T04:49:34;101820.22;;;25.38
64947;BMP280;51469;52.150;4.682;2023-06-10T04:52:00;101812.13;;;25.40
64947;BMP280;51469;52.150;4.682;2023-06-10T04:54:25;101812.91;;;25.41
64947;BMP280;51469;52.150;4.682;2023-06-10T04:56:51;101812.72;;;25.44
64947;BMP280;51469;52.150;4.682;2023-06-10T04:59:16;101814.31;;;25.45
64947;BMP280;51469;52.150;4.682;2023-06-10T05:01:42;101825.31;;;25.52
64947;BMP280;51469;52.150;4.682;2023-06-10T05:04:08;101815.94;;;25.55
64947;BMP280;51469;52.150;4.682;2023-06-10T05:06:33;101812.19;;;25.58
64947;BMP280;51469;52.150;4.682;2023-06-10T05:08:59;101813.53;;;25.45
64947;BMP280;51469;52.150;4.682;2023-06-10T05:11:24;101822.78;;;25.54
64947;BMP280;51469;52.150;4.682;2023-06-10T05:13:50;101813.75;;;25.59
64947;BMP280;51469;52.150;4.682;2023-06-10T05:16:15;101815.03;;;25.67
64947;BMP280;51469;52.150;4.682;2023-06-10T05:18:41;101811.53;;;25.54
64947;BMP280;51469;52.150;4.682;2023-06-10T05:21:06;101819.09;;;25.66
64947;BMP280;51469;52.150;4.682;2023-06-10T05:23:32;101811.25;;;25.61
64947;BMP280;51469;52.150;4.682;2023-06-10T05:25:58;101813.81;;;25.77
64947;BMP280;51469;52.150;4.682;2023-06-10T05:28:24;101813.81;;;25.77
64947;BMP280;51469;52.150;4.682;2023-06-10T05:30:51;101812.59;;;25.87
64947;BMP280;51469;52.150;4.682;2023-06-10T05:33:16;101815.09;;;25.76
64947;BMP280;51469;52.150;4.682;2023-06-10T05:35:41;101813.88;;;25.86
64947;BMP280;51469;52.150;4.682;2023-06-10T05:38:07;101819.22;;;26.02
64947;BMP280;51469;52.150;4.682;2023-06-10T05:40:32;101821.91;;;26.14
64947;BMP280;51469;52.150;4.682;2023-06-10T05:42:58;101818.94;;;26.27
64947;BMP280;51469;52.150;4.682;2023-06-10T05:45:23;101821.59;;;26.21
64947;BMP280;51469;52.150;4.682;2023-06-10T05:47:48;101820.81;;;26.21
64947;BMP280;51469;52.150;4.682;2023-06-10T05:50:14;101824.22;;;26.25
64947;BMP280;51469;52.150;4.682;2023-06-10T05:52:39;101823.34;;;26.55
64947;BMP280;51469;52.150;4.682;2023-06-10T05:55:07;101826.13;;;26.82
64947;BMP280;51469;52.150;4.682;2023-06-10T05:57:33;101830.81;;;26.85
64947;BMP280;51469;52.150;4.682;2023-06-10T05:59:59;101824.06;;;27.09
64947;BMP280;51469;52.150;4.682;2023-06-10T06:02:24;101830.34;;;27.46
64947;BMP280;51469;52.150;4.682;2023-06-10T06:04:50;101826.44;;;27.75
64947;BMP280;51469;52.150;4.682;2023-06-10T06:07:15;101834.06;;;28.07
64947;BMP280;51469;52.150;4.682;2023-06-10T06:09:41;101828.66;;;28.18
64947;BMP280;51469;52.150;4.682;2023-06-10T06:14:32;101830.78;;;28.61
64947;BMP280;51469;52.150;4.682;2023-06-10T06:17:01;101828.25;;;28.78
64947;BMP280;51469;52.150;4.682;2023-06-10T06:19:27;101817.56;;;28.96
64947;BMP280;51469;52.150;4.682;2023-06-10T06:21:53;101821.97;;;28.68
64947;BMP280;51469;52.150;4.682;2023-06-10T06:24:18;101820.47;;;28.87
64947;BMP280;51469;52.150;4.682;2023-06-10T06:26:43;101828.88;;;28.96
64947;BMP280;51469;52.150;4.682;2023-06-10T06:29:09;101829.66;;;28.82
64947;BMP280;51469;52.150;4.682;2023-06-10T06:31:34;101833.44;;;28.79
64947;BMP280;51469;52.150;4.682;2023-06-10T06:33:59;101816.59;;;28.70
64947;BMP280;51469;52.150;4.682;2023-06-10T06:36:25;101824.56;;;29.01
64947;BMP280;51469;52.150;4.682;2023-06-10T06:38:50;101824.84;;;29.17
64947;BMP280;51469;52.150;4.682;2023-06-10T06:41:16;101819.13;;;28.97
64947;BMP280;51469;52.150;4.682;2023-06-10T06:43:41;101833.34;;;29.17
64947;BMP280;51469;52.150;4.682;2023-06-10T06:46:08;101825.16;;;29.19
64947;BMP280;51469;52.150;4.682;2023-06-10T06:48:33;101836.97;;;28.89
64947;BMP280;51469;52.150;4.682;2023-06-10T06:50:58;101830.03;;;29.04
64947;BMP280;51469;52.150;4.682;2023-06-10T06:53:25;101827.69;;;29.17
64947;BMP280;51469;52.150;4.682;2023-06-10T06:55:50;101832.16;;;29.09
64947;BMP280;51469;52.150;4.682;2023-06-10T06:58:15;101829.94;;;29.13
64947;BMP280;51469;52.150;4.682;2023-06-10T07:00:41;101825.97;;;29.05
64947;BMP280;51469;52.150;4.682;2023-06-10T07:03:06;101833.91;;;29.21
64947;BMP280;51469;52.150;4.682;2023-06-10T07:05:32;101828.84;;;29.25
64947;BMP280;51469;52.150;4.682;2023-06-10T07:07:57;101840.34;;;29.36
64947;BMP280;51469;52.150;4.682;2023-06-10T07:10:23;101831.72;;;29.45
64947;BMP280;51469;52.150;4.682;2023-06-10T07:12:49;101837.22;;;29.34
64947;BMP280;51469;52.150;4.682;2023-06-10T07:15:15;101833.41;;;29.37
64947;BMP280;51469;52.150;4.682;2023-06-10T07:17:40;101837.94;;;29.49
64947;BMP280;51469;52.150;4.682;2023-06-10T07:20:06;101836.81;;;29.41
64947;BMP280;51469;52.150;4.682;2023-06-10T07:22:31;101842.06;;;29.48
64947;BMP280;51469;52.150;4.682;2023-06-10T07:24:57;101838.22;;;29.65
64947;BMP280;51469;52.150;4.682;2023-06-10T07:27:23;101838.72;;;29.84
64947;BMP280;51469;52.150;4.682;2023-06-10T07:29:48;101840.00;;;29.83
64947;BMP280;51469;52.150;4.682;2023-06-10T07:32:14;101839.44;;;29.79
64947;BMP280;51469;52.150;4.682;2023-06-10T07:34:39;101839.69;;;30.01
64947;BMP280;51469;52.150;4.682;2023-06-10T07:37:05;101828.25;;;29.90
64947;BMP280;51469;52.150;4.682;2023-06-10T07:39:30;101843.03;;;29.99
64947;BMP280;51469;52.150;4.682;2023-06-10T07:41:56;101837.28;;;30.14
64947;BMP280;51469;52.150;4.682;2023-06-10T07:44:22;101838.25;;;30.31
64947;BMP280;51469;52.150;4.682;2023-06-10T07:46:48;101839.75;;;30.46
64947;BMP280;51469;52.150;4.682;2023-06-10T07:49:14;101845.22;;;30.55
64947;BMP280;51469;52.150;4.682;2023-06-10T07:51:39;101840.31;;;30.76
64947;BMP280;51469;52.150;4.682;2023-06-10T07:54:04;101845.13;;;30.70
64947;BMP280;51469;52.150;4.682;2023-06-10T07:56:30;101840.81;;;30.80
64947;BMP280;51469;52.150;4.682;2023-06-10T07:58:55;101841.75;;;30.96
64947;BMP280;51469;52.150;4.682;2023-06-10T08:01:22;101841.84;;;31.07
64947;BMP280;51469;52.150;4.682;2023-06-10T08:03:48;101837.50;;;31.12
64947;BMP280;51469;52.150;4.682;2023-06-10T08:06:14;101842.63;;;31.08
64947;BMP280;51469;52.150;4.682;2023-06-10T08:08:39;101834.19;;;31.13
64947;BMP280;51469;52.150;4.682;2023-06-10T08:11:08;101848.19;;;31.33
64947;BMP280;51469;52.150;4.682;2023-06-10T08:13:33;101843.63;;;31.41
64947;BMP280;51469;52.150;4.682;2023-06-10T08:15:58;101848.59;;;31.46
64947;BMP280;51469;52.150;4.682;2023-06-10T08:18:24;101849.38;;;31.52
64947;BMP280;51469;52.150;4.682;2023-06-10T08:20:49;101840.38;;;31.54
64947;BMP280;51469;52.150;4.682;2023-06-10T08:23:15;101842.69;;;31.55
64947;BMP280;51469;52.150;4.682;2023-06-10T08:25:40;101847.94;;;31.73
64947;BMP280;51469;52.150;4.682;2023-06-10T08:28:05;101852.91;;;31.84
64947;BMP280;51469;52.150;4.682;2023-06-10T08:30:31;101848.88;;;32.07
64947;BMP280;51469;52.150;4.682;2023-06-10T08:32:56;101848.13;;;32.17
64947;BMP280;51469;52.150;4.682;2023-06-10T08:35:22;101851.00;;;32.33
64947;BMP280;51469;52.150;4.682;2023-06-10T08:37:47;101843.22;;;32.28
64947;BMP280;51469;52.150;4.682;2023-06-10T08:40:13;101845.31;;;32.33
64947;BMP280;51469;52.150;4.682;2023-06-10T08:43:00;101849.72;;;32.40
64947;BMP280;51469;52.150;4.682;2023-06-10T08:45:30;101846.13;;;32.45
64947;BMP280;51469;52.150;4.682;2023-06-10T08:47:57;101842.50;;;32.50
64947;BMP280;51469;52.150;4.682;2023-06-10T08:50:22;101842.00;;;32.57
64947;BMP280;51469;52.150;4.682;2023-06-10T08:52:50;101846.66;;;32.49
64947;BMP280;51469;52.150;4.682;2023-06-10T08:55:23;101842.03;;;32.46
64947;BMP280;51469;52.150;4.682;2023-06-10T08:57:51;101857.00;;;32.63
64947;BMP280;51469;52.150;4.682;2023-06-10T09:00:17;101842.81;;;32.74
64947;BMP280;51469;52.150;4.682;2023-06-10T09:02:43;101852.34;;;32.82
64947;BMP280;51469;52.150;4.682;2023-06-10T09:05:09;101841.75;;;32.71
64947;BMP280;51469;52.150;4.682;2023-06-10T09:07:35;101850.78;;;32.70
64947;BMP280;51469;52.150;4.682;2023-06-10T09:10:02;101847.97;;;32.64
64947;BMP280;51469;52.150;4.682;2023-06-10T09:12:32;101838.38;;;32.95
64947;BMP280;51469;52.150;4.682;2023-06-10T09:14:58;101843.81;;;33.15
64947;BMP280;51469;52.150;4.682;2023-06-10T09:17:23;101829.06;;;33.00
64947;BMP280;51469;52.150;4.682;2023-06-10T09:19:50;101850.78;;;33.25
64947;BMP280;51469;52.150;4.682;2023-06-10T09:22:18;101835.72;;;33.35
64947;BMP280;51469;52.150;4.682;2023-06-10T09:24:43;101849.78;;;33.17
64947;BMP280;51469;52.150;4.682;2023-06-10T09:27:09;101841.94;;;33.45
64947;BMP280;51469;52.150;4.682;2023-06-10T09:29:51;101839.25;;;33.68
64947;BMP280;51469;52.150;4.682;2023-06-10T09:32:17;101847.03;;;33.62
64947;BMP280;51469;52.150;4.682;2023-06-10T09:34:43;101839.28;;;33.57
64947;BMP280;51469;52.150;4.682;2023-06-10T09:37:09;101841.34;;;33.62
64947;BMP280;51469;52.150;4.682;2023-06-10T09:39:37;101847.56;;;33.55
64947;BMP280;51469;52.150;4.682;2023-06-10T09:42:15;101845.69;;;33.74
64947;BMP280;51469;52.150;4.682;2023-06-10T09:44:41;101852.66;;;33.84
64947;BMP280;51469;52.150;4.682;2023-06-10T09:47:07;101845.09;;;33.92
64947;BMP280;51469;52.150;4.682;2023-06-10T09:49:32;101841.06;;;34.17
64947;BMP280;51469;52.150;4.682;2023-06-10T09:51:57;101841.22;;;34.36
64947;BMP280;51469;52.150;4.682;2023-06-10T09:54:23;101843.06;;;34.33
64947;BMP280;51469;52.150;4.682;2023-06-10T09:56:49;101844.78;;;34.01
64947;BMP280;51469;52.150;4.682;2023-06-10T09:59:15;101835.03;;;34.32
64947;BMP280;51469;52.150;4.682;2023-06-10T10:01:41;101847.41;;;34.34
64947;BMP280;51469;52.150;4.682;2023-06-10T10:04:07;101839.41;;;34.38
64947;BMP280;51469;52.150;4.682;2023-06-10T10:06:34;101842.72;;;34.42
64947;BMP280;51469;52.150;4.682;2023-06-10T10:08:59;101843.34;;;34.24
64947;BMP280;51469;52.150;4.682;2023-06-10T10:11:25;101845.09;;;34.38
64947;BMP280;51469;52.150;4.682;2023-06-10T10:13:52;101836.28;;;34.66
64947;BMP280;51469;52.150;4.682;2023-06-10T10:16:21;101837.66;;;34.59
64947;BMP280;51469;52.150;4.682;2023-06-10T10:18:59;101841.50;;;34.91
64947;BMP280;51469;52.150;4.682;2023-06-10T10:21:32;101833.50;;;35.13
64947;BMP280;51469;52.150;4.682;2023-06-10T10:24:18;101840.09;;;35.03
64947;BMP280;51469;52.150;4.682;2023-06-10T10:26:47;101833.56;;;35.08
64947;BMP280;51469;52.150;4.682;2023-06-10T10:29:38;101829.38;;;34.85
64947;BMP280;51469;52.150;4.682;2023-06-10T10:32:06;101826.91;;;34.71
64947;BMP280;51469;52.150;4.682;2023-06-10T10:34:53;101824.84;;;34.71
64947;BMP280;51469;52.150;4.682;2023-06-10T10:37:21;101832.47;;;35.11
64947;BMP280;51469;52.150;4.682;2023-06-10T10:39:47;101824.03;;;35.24
64947;BMP280;51469;52.150;4.682;2023-06-10T10:42:13;101821.75;;;35.41
64947;BMP280;51469;52.150;4.682;2023-06-10T10:44:40;101824.69;;;35.54
64947;BMP280;51469;52.150;4.682;2023-06-10T10:47:08;101822.66;;;35.30
64947;BMP280;51469;52.150;4.682;2023-06-10T10:49:35;101817.72;;;35.31
64947;BMP280;51469;52.150;4.682;2023-06-10T10:52:01;101822.69;;;35.49
64947;BMP280;51469;52.150;4.682;2023-06-10T10:54:31;101811.03;;;35.47
64947;BMP280;51469;52.150;4.682;2023-06-10T10:57:10;101809.22;;;35.68
64947;BMP280;51469;52.150;4.682;2023-06-10T11:02:15;101815.63;;;35.92
64947;BMP280;51469;52.150;4.682;2023-06-10T11:04:48;101810.13;;;36.25
64947;BMP280;51469;52.150;4.682;2023-06-10T11:07:14;101806.69;;;36.45
64947;BMP280;51469;52.150;4.682;2023-06-10T11:09:58;101811.06;;;36.33
64947;BMP280;51469;52.150;4.682;2023-06-10T11:15:22;101807.41;;;36.01
64947;BMP280;51469;52.150;4.682;2023-06-10T11:18:23;101813.84;;;36.20
64947;BMP280;51469;52.150;4.682;2023-06-10T11:23:32;101794.34;;;36.37
64947;BMP280;51469;52.150;4.682;2023-06-10T11:26:17;101788.53;;;36.11
64947;BMP280;51469;52.150;4.682;2023-06-10T11:34:01;101785.34;;;35.83
64947;BMP280;51469;52.150;4.682;2023-06-10T11:36:28;101791.03;;;35.83
64947;BMP280;51469;52.150;4.682;2023-06-10T11:38:59;101777.03;;;35.86
64947;BMP280;51469;52.150;4.682;2023-06-10T11:41:26;101781.34;;;35.74
64947;BMP280;51469;52.150;4.682;2023-06-10T11:43:52;101776.09;;;35.78
64947;BMP280;51469;52.150;4.682;2023-06-10T11:46:19;101773.38;;;36.16
64947;BMP280;51469;52.150;4.682;2023-06-10T11:48:55;101776.97;;;36.48
64947;BMP280;51469;52.150;4.682;2023-06-10T11:51:21;101775.94;;;36.77
64947;BMP280;51469;52.150;4.682;2023-06-10T11:53:47;101780.31;;;36.65
64947;BMP280;51469;52.150;4.682;2023-06-10T11:56:13;101787.25;;;36.70
64947;BMP280;51469;52.150;4.682;2023-06-10T11:58:43;101780.41;;;36.60
64947;BMP280;51469;52.150;4.682;2023-06-10T12:01:10;101778.75;;;36.51
64947;BMP280;51469;52.150;4.682;2023-06-10T12:03:38;101777.03;;;36.61
64947;BMP280;51469;52.150;4.682;2023-06-10T12:06:05;101775.69;;;36.62
64947;BMP280;51469;52.150;4.682;2023-06-10T12:08:32;101767.56;;;37.05
64947;BMP280;51469;52.150;4.682;2023-06-10T12:10:58;101761.78;;;37.31
64947;BMP280;51469;52.150;4.682;2023-06-10T12:13:27;101756.53;;;37.09
64947;BMP280;51469;52.150;4.682;2023-06-10T12:15:53;101757.38;;;37.30
64947;BMP280;51469;52.150;4.682;2023-06-10T12:18:22;101760.25;;;37.30
64947;BMP280;51469;52.150;4.682;2023-06-10T12:20:49;101768.19;;;37.24
64947;BMP280;51469;52.150;4.682;2023-06-10T12:23:16;101766.00;;;36.78
64947;BMP280;51469;52.150;4.682;2023-06-10T12:25:52;101761.03;;;36.53
64947;BMP280;51469;52.150;4.682;2023-06-10T12:28:21;101753.94;;;36.72
64947;BMP280;51469;52.150;4.682;2023-06-10T12:30:46;101755.34;;;36.66
64947;BMP280;51469;52.150;4.682;2023-06-10T12:33:19;101762.38;;;36.65
64947;BMP280;51469;52.150;4.682;2023-06-10T12:35:51;101759.88;;;36.74
64947;BMP280;51469;52.150;4.682;2023-06-10T12:38:22;101760.47;;;36.41
64947;BMP280;51469;52.150;4.682;2023-06-10T12:40:47;101751.72;;;36.65
64947;BMP280;51469;52.150;4.682;2023-06-10T12:43:13;101763.38;;;36.54
64947;BMP280;51469;52.150;4.682;2023-06-10T12:45:39;101755.03;;;36.82
64947;BMP280;51469;52.150;4.682;2023-06-10T12:48:17;101752.03;;;36.88
64947;BMP280;51469;52.150;4.682;2023-06-10T12:50:42;101752.50;;;36.66
64947;BMP280;51469;52.150;4.682;2023-06-10T12:53:09;101752.03;;;37.13
64947;BMP280;51469;52.150;4.682;2023-06-10T12:55:35;101753.25;;;37.18
64947;BMP280;51469;52.150;4.682;2023-06-10T12:58:00;101755.59;;;36.93
64947;BMP280;51469;52.150;4.682;2023-06-10T13:00:27;101752.03;;;36.88
64947;BMP280;51469;52.150;4.682;2023-06-10T13:02:55;101745.56;;;37.00
64947;BMP280;51469;52.150;4.682;2023-06-10T13:05:21;101748.19;;;36.85
64947;BMP280;51469;52.150;4.682;2023-06-10T13:07:47;101750.97;;;36.91
64947;BMP280;51469;52.150;4.682;2023-06-10T13:10:13;101756.00;;;36.59
64947;BMP280;51469;52.150;4.682;2023-06-10T13:12:39;101741.47;;;37.08
64947;BMP280;51469;52.150;4.682;2023-06-10T13:15:05;101740.06;;;37.02
64947;BMP280;51469;52.150;4.682;2023-06-10T13:17:30;101752.78;;;36.36
64947;BMP280;51469;52.150;4.682;2023-06-10T13:19:56;101738.41;;;36.10
64947;BMP280;51469;52.150;4.682;2023-06-10T13:22:21;101737.97;;;36.64
64947;BMP280;51469;52.150;4.682;2023-06-10T13:24:49;101729.06;;;36.93
64947;BMP280;51469;52.150;4.682;2023-06-10T13:27:14;101733.66;;;37.09
64947;BMP280;51469;52.150;4.682;2023-06-10T13:29:39;101730.38;;;36.79
64947;BMP280;51469;52.150;4.682;2023-06-10T13:32:06;101748.44;;;36.74
64947;BMP280;51469;52.150;4.682;2023-06-10T13:34:31;101722.66;;;36.87
64947;BMP280;51469;52.150;4.682;2023-06-10T13:36:57;101731.03;;;36.85
64947;BMP280;51469;52.150;4.682;2023-06-10T13:39:22;101730.22;;;37.10
64947;BMP280;51469;52.150;4.682;2023-06-10T13:41:47;101728.63;;;37.02
64947;BMP280;51469;52.150;4.682;2023-06-10T13:44:13;101722.66;;;36.87
64947;BMP280;51469;52.150;4.682;2023-06-10T13:46:38;101713.56;;;37.22
64947;BMP280;51469;52.150;4.682;2023-06-10T13:49:04;101715.38;;;36.99
64947;BMP280;51469;52.150;4.682;2023-06-10T13:51:29;101716.69;;;37.11
64947;BMP280;51469;52.150;4.682;2023-06-10T13:53:55;101716.28;;;36.68
64947;BMP280;51469;52.150;4.682;2023-06-10T13:56:20;101717.59;;;36.80
64947;BMP280;51469;52.150;4.682;2023-06-10T13:58:45;101722.91;;;36.50
64947;BMP280;51469;52.150;4.682;2023-06-10T14:01:11;101710.13;;;36.64
64947;BMP280;51469;52.150;4.682;2023-06-10T14:03:36;101707.28;;;36.77
64947;BMP280;51469;52.150;4.682;2023-06-10T14:06:02;101716.28;;;36.68
64947;BMP280;51469;52.150;4.682;2023-06-10T14:08:28;101706.78;;;36.99
64947;BMP280;51469;52.150;4.682;2023-06-10T14:10:53;101705.50;;;36.87
64947;BMP280;51469;52.150;4.682;2023-06-10T14:13:19;101709.13;;;36.75
64947;BMP280;51469;52.150;4.682;2023-06-10T14:15:44;101707.28;;;36.64